createdAt,value
2018-03-22T00:00:05.260Z,68.10
2018-03-22T00:02:33.282Z,67.80
2018-03-22T00:05:01.596Z,68.00
2018-03-22T00:07:29.858Z,67.60
2018-03-22T00:09:58.206Z,67.50
2018-03-22T00:12:26.478Z,67.60
2018-03-22T00:14:54.755Z,67.40
2018-03-22T00:17:23.023Z,67.50
2018-03-22T00:19:51.355Z,67.40
2018-03-22T00:22:31.732Z,67.40
2018-03-22T00:25:00.893Z,67.50
2018-03-22T00:27:29.276Z,67.50
2018-03-22T00:29:57.524Z,67.70
2018-03-22T00:32:27.503Z,67.20
2018-03-22T00:34:57.394Z,67.10
2018-03-22T00:37:25.613Z,67.10
2018-03-22T00:39:53.857Z,66.70
2018-03-22T00:42:22.913Z,66.90
2018-03-22T00:44:51.144Z,66.90
2018-03-22T00:47:19.444Z,67.00
2018-03-22T00:49:47.955Z,67.00
2018-03-22T00:52:16.212Z,67.20
2018-03-22T00:54:44.485Z,67.40
2018-03-22T00:57:12.755Z,67.70
2018-03-22T00:59:41.031Z,67.60
2018-03-22T01:02:09.449Z,67.70
2018-03-22T01:04:38.915Z,67.80
2018-03-22T01:07:07.194Z,67.90
2018-03-22T01:09:35.435Z,68.30
2018-03-22T01:12:03.761Z,68.80
2018-03-22T01:14:32.047Z,69.20
2018-03-22T01:17:00.306Z,69.70
2018-03-22T01:19:28.712Z,70.20
2018-03-22T01:21:57.055Z,70.60
2018-03-22T01:24:25.356Z,70.30
2018-03-22T01:26:53.644Z,72.10
2018-03-22T01:29:21.916Z,72.30
2018-03-22T01:31:52.162Z,73.30
2018-03-22T01:34:21.198Z,74.30
2018-03-22T01:36:49.496Z,74.00
2018-03-22T01:39:17.769Z,74.30
2018-03-22T01:41:46.050Z,74.80
2018-03-22T01:44:15.480Z,75.20
2018-03-22T01:46:43.738Z,75.90
2018-03-22T01:49:12.097Z,76.10
2018-03-22T01:51:40.485Z,76.30
2018-03-22T01:54:08.771Z,76.50
2018-03-22T01:56:37.030Z,76.70
2018-03-22T01:59:05.262Z,77.00
2018-03-22T02:01:33.562Z,77.50
2018-03-22T02:04:01.841Z,76.80
2018-03-22T02:06:30.151Z,77.40
2018-03-22T02:08:58.414Z,77.50
2018-03-22T02:11:27.454Z,77.40
2018-03-22T02:13:55.706Z,77.50
2018-03-22T02:16:24.045Z,77.60
2018-03-22T02:18:52.381Z,77.40
2018-03-22T02:21:21.101Z,78.00
2018-03-22T02:23:49.568Z,78.10
2018-03-22T02:26:17.849Z,78.40
2018-03-22T02:28:46.082Z,78.30
2018-03-22T02:31:15.231Z,78.80
2018-03-22T02:33:44.671Z,78.80
2018-03-22T02:36:14.478Z,79.20
2018-03-22T02:38:42.822Z,79.20
2018-03-22T02:41:11.065Z,79.50
2018-03-22T02:43:39.394Z,80.10
2018-03-22T02:46:07.650Z,79.50
2018-03-22T02:48:39.575Z,80.00
2018-03-22T02:51:08.705Z,79.90
2018-03-22T02:53:36.864Z,79.70
2018-03-22T02:56:05.141Z,80.70
2018-03-22T02:58:33.565Z,80.50
2018-03-22T03:01:01.817Z,80.20
2018-03-22T03:03:30.077Z,80.50
2018-03-22T03:05:58.358Z,80.90
2018-03-22T03:08:26.627Z,81.00
2018-03-22T03:10:54.871Z,80.80
2018-03-22T03:13:25.163Z,80.90
2018-03-22T03:15:53.438Z,80.80
2018-03-22T03:18:22.473Z,81.10
2018-03-22T03:20:50.781Z,81.40
2018-03-22T03:23:19.082Z,81.20
2018-03-22T03:25:47.322Z,81.70
2018-03-22T03:28:15.628Z,81.10
2018-03-22T03:30:44.604Z,81.30
2018-03-22T03:33:13.680Z,81.60
2018-03-22T03:35:41.971Z,81.70
2018-03-22T03:38:10.254Z,82.20
2018-03-22T03:40:38.562Z,81.10
2018-03-22T03:43:06.876Z,81.10
2018-03-22T03:45:35.941Z,81.10
2018-03-22T03:48:04.973Z,81.00
2018-03-22T03:50:33.283Z,81.30
2018-03-22T03:53:02.327Z,82.10
2018-03-22T03:55:31.442Z,80.70
2018-03-22T03:57:59.734Z,80.70
2018-03-22T04:00:28.047Z,81.40
2018-03-22T04:02:56.308Z,81.70
2018-03-22T04:05:24.556Z,81.40
2018-03-22T04:07:53.616Z,81.70
2018-03-22T04:10:23.545Z,81.10
2018-03-22T04:12:51.776Z,81.00
2018-03-22T04:15:20.853Z,82.40
2018-03-22T04:17:49.155Z,82.40
2018-03-22T04:20:17.426Z,81.90
2018-03-22T04:22:46.521Z,82.00
2018-03-22T04:25:16.302Z,81.70
2018-03-22T04:27:44.588Z,81.60
2018-03-22T04:30:12.883Z,81.50
2018-03-22T04:32:41.209Z,80.90
2018-03-22T04:35:09.551Z,81.30
2018-03-22T04:37:37.784Z,81.30
2018-03-22T04:40:07.349Z,80.90
2018-03-22T04:42:36.365Z,80.80
2018-03-22T04:45:07.046Z,80.90
2018-03-22T04:47:36.816Z,81.50
2018-03-22T04:50:05.880Z,81.10
2018-03-22T04:52:34.944Z,81.50
2018-03-22T04:55:03.199Z,81.40
2018-03-22T04:57:31.517Z,81.20
2018-03-22T05:00:00.547Z,82.00
2018-03-22T05:02:28.856Z,81.20
2018-03-22T05:04:57.149Z,82.40
2018-03-22T05:07:25.495Z,81.50
2018-03-22T05:09:53.751Z,81.30
2018-03-22T05:12:22.048Z,81.60
2018-03-22T05:14:50.327Z,81.80
2018-03-22T05:17:18.601Z,81.80
2018-03-22T05:19:47.026Z,81.70
2018-03-22T05:22:15.359Z,82.20
2018-03-22T05:24:43.618Z,82.50
2018-03-22T05:27:11.907Z,82.10
2018-03-22T05:29:40.186Z,82.50
2018-03-22T05:32:08.484Z,81.90
2018-03-22T05:34:36.829Z,82.30
2018-03-22T05:37:05.140Z,82.10
2018-03-22T05:39:33.440Z,81.70
2018-03-22T05:42:02.498Z,83.70
2018-03-22T05:44:30.734Z,83.60
2018-03-22T05:46:59.055Z,83.40
2018-03-22T05:49:27.356Z,84.60
2018-03-22T05:51:56.382Z,83.40
2018-03-22T05:54:24.693Z,83.20
2018-03-22T05:56:53.003Z,84.80
2018-03-22T05:59:22.852Z,83.90
2018-03-22T06:01:51.885Z,83.80
2018-03-22T06:04:21.667Z,84.00
2018-03-22T06:06:49.946Z,84.00
2018-03-22T06:09:18.241Z,84.80
2018-03-22T06:11:46.517Z,83.50
2018-03-22T06:14:16.059Z,84.20
2018-03-22T06:16:45.102Z,84.40
2018-03-22T06:19:13.375Z,84.90
2018-03-22T06:21:41.635Z,83.20
2018-03-22T06:24:10.067Z,82.60
2018-03-22T06:26:39.115Z,83.30
2018-03-22T06:29:07.370Z,83.30
2018-03-22T06:31:37.342Z,82.80
2018-03-22T06:34:05.574Z,82.70
2018-03-22T06:36:33.821Z,81.70
2018-03-22T06:39:02.873Z,81.30
2018-03-22T06:41:31.150Z,81.30
2018-03-22T06:44:00.317Z,81.60
2018-03-22T06:46:29.473Z,80.80
2018-03-22T06:48:58.477Z,81.20
2018-03-22T06:51:27.650Z,81.20
2018-03-22T06:53:55.898Z,81.20
2018-03-22T06:56:24.205Z,81.30
2018-03-22T06:58:53.996Z,81.30
2018-03-22T07:01:22.270Z,81.20
2018-03-22T07:03:50.607Z,81.80
2018-03-22T07:06:19.055Z,80.80
2018-03-22T07:08:47.302Z,80.30
2018-03-22T07:11:15.575Z,81.00
2018-03-22T07:13:44.652Z,81.10
2018-03-22T07:16:12.921Z,80.90
2018-03-22T07:18:41.200Z,80.80
2018-03-22T07:21:09.459Z,81.00
2018-03-22T07:23:39.271Z,81.40
2018-03-22T07:26:08.354Z,81.40
2018-03-22T07:28:37.377Z,81.60
2018-03-22T07:31:05.644Z,81.60
2018-03-22T07:33:33.980Z,81.10
2018-03-22T07:36:02.237Z,81.60
2018-03-22T07:38:30.484Z,81.60
2018-03-22T07:40:58.818Z,82.30
2018-03-22T07:43:32.834Z,82.70
2018-03-22T07:46:01.934Z,83.20
2018-03-22T07:48:31.048Z,83.50
2018-03-22T07:50:59.357Z,83.20
2018-03-22T07:53:27.741Z,82.90
2018-03-22T07:55:56.021Z,82.90
2018-03-22T07:58:24.323Z,83.10
2018-03-22T08:00:53.522Z,83.30
2018-03-22T08:03:22.587Z,82.80
2018-03-22T08:05:50.952Z,82.80
2018-03-22T08:08:19.228Z,82.70
2018-03-22T08:10:47.523Z,82.70
2018-03-22T08:13:15.827Z,82.90
2018-03-22T08:15:44.196Z,81.80
2018-03-22T08:18:12.485Z,82.30
2018-03-22T08:20:40.849Z,82.40
2018-03-22T08:23:09.170Z,82.60
2018-03-22T08:25:37.454Z,81.70
2018-03-22T08:28:05.739Z,81.70
2018-03-22T08:30:34.025Z,81.90
2018-03-22T08:33:02.290Z,82.00
2018-03-22T08:35:30.593Z,81.60
2018-03-22T08:37:58.824Z,81.80
2018-03-22T08:40:27.108Z,81.50
2018-03-22T08:42:55.390Z,81.70
2018-03-22T08:45:23.682Z,82.30
2018-03-22T08:47:51.929Z,82.00
2018-03-22T08:50:20.247Z,82.20
2018-03-22T08:52:49.401Z,82.70
2018-03-22T08:55:17.643Z,82.60
2018-03-22T08:57:45.986Z,82.70
2018-03-22T09:00:15.289Z,83.00
2018-03-22T09:02:44.265Z,82.80
2018-03-22T09:05:12.530Z,82.70
2018-03-22T09:07:40.790Z,83.20
2018-03-22T09:10:09.043Z,83.80
2018-03-22T09:12:38.121Z,83.30
2018-03-22T09:15:06.397Z,82.90
2018-03-22T09:17:36.164Z,83.70
2018-03-22T09:20:04.463Z,83.60
2018-03-22T09:22:32.720Z,83.20
2018-03-22T09:25:01.015Z,83.40
2018-03-22T09:27:29.307Z,83.80
2018-03-22T09:29:57.585Z,83.50
2018-03-22T09:32:25.870Z,84.50
2018-03-22T09:34:56.733Z,83.80
2018-03-22T09:37:24.953Z,83.90
2018-03-22T09:39:53.188Z,84.00
2018-03-22T09:42:21.490Z,84.10
2018-03-22T09:44:49.728Z,84.10
2018-03-22T09:47:17.973Z,82.90
2018-03-22T09:49:46.256Z,83.50
2018-03-22T09:52:14.516Z,83.30
2018-03-22T09:54:42.806Z,82.90
2018-03-22T09:57:11.072Z,82.60
2018-03-22T09:59:39.430Z,81.30
2018-03-22T10:02:07.780Z,81.10
2018-03-22T10:04:36.930Z,81.90
2018-03-22T10:07:05.193Z,81.80
2018-03-22T10:09:33.959Z,82.00
2018-03-22T10:12:02.213Z,81.90
2018-03-22T10:14:30.446Z,82.40
2018-03-22T10:16:58.748Z,81.10
2018-03-22T10:19:27.086Z,81.90
2018-03-22T10:21:58.195Z,81.80
2018-03-22T10:24:27.347Z,79.70
2018-03-22T10:26:55.619Z,79.70
2018-03-22T10:29:25.375Z,79.10
2018-03-22T10:31:53.684Z,79.10
2018-03-22T10:34:21.981Z,78.60
2018-03-22T10:36:50.250Z,79.00
2018-03-22T10:39:18.637Z,78.60
2018-03-22T10:41:48.513Z,78.10
2018-03-22T10:44:16.793Z,78.10
2018-03-22T10:46:45.210Z,78.30
2018-03-22T10:49:13.433Z,76.80
2018-03-22T10:51:41.765Z,76.20
2018-03-22T10:54:10.533Z,76.20
2018-03-22T10:56:38.867Z,76.40
2018-03-22T10:59:08.684Z,76.10
2018-03-22T11:01:42.725Z,76.10
2018-03-22T11:04:11.068Z,76.20
2018-03-22T11:06:39.341Z,75.80
2018-03-22T11:09:07.583Z,74.50
2018-03-22T11:11:36.637Z,75.10
2018-03-22T11:14:04.901Z,75.10
2018-03-22T11:16:33.166Z,73.70
2018-03-22T11:19:01.432Z,72.90
2018-03-22T11:21:30.591Z,73.70
2018-03-22T11:23:58.820Z,73.70
2018-03-22T11:26:27.081Z,71.80
2018-03-22T11:28:56.903Z,71.60
2018-03-22T11:31:25.967Z,71.90
2018-03-22T11:33:55.021Z,72.00
2018-03-22T11:36:23.289Z,71.70
2018-03-22T11:38:51.701Z,71.40
2018-03-22T11:41:21.232Z,71.40
2018-03-22T11:43:50.277Z,72.10
2018-03-22T11:46:18.520Z,72.00
2018-03-22T11:48:47.190Z,73.70
2018-03-22T11:51:17.166Z,72.10
2018-03-22T11:53:45.577Z,72.10
2018-03-22T11:56:13.765Z,72.70
2018-03-22T11:58:42.039Z,72.20
2018-03-22T12:01:11.082Z,71.80
2018-03-22T12:03:40.618Z,71.80
2018-03-22T12:06:08.874Z,72.50
2018-03-22T12:08:37.142Z,72.50
2018-03-22T12:11:06.318Z,72.80
2018-03-22T12:13:35.459Z,72.40
2018-03-22T12:16:03.827Z,72.70
2018-03-22T12:18:32.145Z,73.20
2018-03-22T12:21:00.444Z,72.40
2018-03-22T12:23:29.886Z,72.40
2018-03-22T12:25:58.130Z,72.90
2018-03-22T12:28:26.398Z,72.60
2018-03-22T12:30:54.668Z,72.70
2018-03-22T12:33:23.014Z,73.10
2018-03-22T12:35:52.039Z,73.70
2018-03-22T12:38:20.284Z,73.60
2018-03-22T12:40:49.383Z,73.30
2018-03-22T12:43:18.444Z,72.90
2018-03-22T12:45:46.682Z,72.90
2018-03-22T12:48:16.127Z,73.80
2018-03-22T12:50:44.991Z,73.80
2018-03-22T12:53:13.236Z,74.20
2018-03-22T12:55:41.510Z,73.60
2018-03-22T12:58:09.889Z,74.30
2018-03-22T13:00:39.465Z,74.40
2018-03-22T13:03:07.711Z,74.60
2018-03-22T13:05:35.983Z,74.60
2018-03-22T13:08:04.279Z,75.10
2018-03-22T13:10:34.034Z,75.10
2018-03-22T13:13:02.397Z,75.10
2018-03-22T13:15:30.642Z,75.10
2018-03-22T13:17:58.903Z,74.70
2018-03-22T13:20:27.215Z,74.00
2018-03-22T13:22:57.004Z,74.50
2018-03-22T13:25:26.751Z,74.90
2018-03-22T13:27:55.778Z,75.00
2018-03-22T13:30:24.050Z,75.00
2018-03-22T13:32:52.382Z,75.10
2018-03-22T13:35:21.397Z,75.00
2018-03-22T13:37:50.428Z,75.60
2018-03-22T13:40:18.658Z,75.60
2018-03-22T13:42:47.750Z,76.30
2018-03-22T13:45:16.042Z,76.30
2018-03-22T13:47:44.326Z,76.60
2018-03-22T13:50:12.590Z,76.70
2018-03-22T13:52:42.554Z,77.10
2018-03-22T13:55:10.848Z,77.10
2018-03-22T13:57:39.073Z,76.40
2018-03-22T14:00:07.334Z,76.30
2018-03-22T14:02:35.650Z,77.00
2018-03-22T14:05:03.910Z,77.00
2018-03-22T14:07:32.174Z,77.10
2018-03-22T14:10:00.436Z,77.60
2018-03-22T14:12:28.770Z,77.50
2018-03-22T14:14:57.206Z,77.30
2018-03-22T14:17:25.457Z,77.50
2018-03-22T14:19:53.802Z,77.50
2018-03-22T14:22:22.090Z,77.30
2018-03-22T14:24:50.327Z,78.10
2018-03-22T14:27:18.629Z,78.10
2018-03-22T14:29:46.926Z,78.30
2018-03-22T14:32:15.385Z,78.50
2018-03-22T14:34:45.165Z,78.50
2018-03-22T14:37:13.456Z,78.50
2018-03-22T14:39:41.723Z,78.60
2018-03-22T14:42:10.043Z,78.60
2018-03-22T14:44:39.042Z,78.50
2018-03-22T14:47:08.118Z,78.20
2018-03-22T14:49:36.418Z,78.90
2018-03-22T14:52:05.400Z,77.30
2018-03-22T14:54:34.422Z,77.80
2018-03-22T14:57:03.482Z,77.50
2018-03-22T14:59:31.720Z,77.50
2018-03-22T15:02:00.793Z,77.80
2018-03-22T15:04:29.094Z,77.00
2018-03-22T15:06:57.321Z,77.00
2018-03-22T15:09:26.402Z,76.50
2018-03-22T15:11:55.428Z,75.90
2018-03-22T15:14:23.694Z,75.90
2018-03-22T15:16:52.784Z,75.10
2018-03-22T15:19:20.983Z,75.10
2018-03-22T15:21:49.209Z,75.70
2018-03-22T15:24:17.525Z,75.80
2018-03-22T15:26:45.842Z,75.70
2018-03-22T15:29:14.068Z,75.90
2018-03-22T15:31:42.348Z,76.20
2018-03-22T15:34:11.442Z,76.90
2018-03-22T15:36:40.497Z,77.20
2018-03-22T15:39:10.240Z,76.90
2018-03-22T15:41:39.317Z,76.60
2018-03-22T15:44:09.101Z,76.90
2018-03-22T15:46:37.389Z,76.90
2018-03-22T15:49:05.635Z,77.00
2018-03-22T15:51:33.965Z,76.40
2018-03-22T15:54:03.023Z,75.20
2018-03-22T15:56:31.263Z,75.20
2018-03-22T15:58:59.529Z,75.40
2018-03-22T16:01:27.838Z,75.70
2018-03-22T16:03:56.067Z,76.00
2018-03-22T16:06:25.101Z,74.70
2018-03-22T16:08:53.397Z,74.70
2018-03-22T16:11:21.666Z,75.00
2018-03-22T16:13:49.963Z,74.50
2018-03-22T16:16:18.257Z,74.50
2018-03-22T16:18:47.277Z,74.60
2018-03-22T16:21:15.548Z,74.60
2018-03-22T16:23:43.831Z,75.00
2018-03-22T16:26:12.103Z,75.30
2018-03-22T16:28:40.386Z,75.60
2018-03-22T16:31:08.693Z,76.20
2018-03-22T16:33:36.922Z,76.60
2018-03-22T16:36:05.220Z,76.60
2018-03-22T16:38:33.442Z,76.80
2018-03-22T16:41:01.799Z,76.40
2018-03-22T16:43:30.072Z,77.00
2018-03-22T16:45:58.326Z,76.80
2018-03-22T16:48:26.605Z,75.90
2018-03-22T16:50:54.902Z,76.10
2018-03-22T16:53:23.151Z,75.90
2018-03-22T16:55:51.392Z,76.10
2018-03-22T16:58:20.651Z,75.40
2018-03-22T17:00:49.003Z,75.20
2018-03-22T17:03:17.306Z,75.00
2018-03-22T17:05:45.546Z,75.80
2018-03-22T17:08:13.862Z,76.00
2018-03-22T17:10:42.100Z,76.60
2018-03-22T17:13:10.400Z,76.70
2018-03-22T17:15:38.662Z,76.10
2018-03-22T17:18:07.245Z,76.50
2018-03-22T17:20:35.528Z,76.90
2018-03-22T17:23:03.832Z,76.90
2018-03-22T17:25:32.193Z,76.20
2018-03-22T17:28:00.492Z,76.30
2018-03-22T17:30:28.778Z,76.20
2018-03-22T17:32:57.064Z,76.90
2018-03-22T17:35:26.092Z,77.10
2018-03-22T17:37:54.419Z,77.10
2018-03-22T17:40:22.669Z,77.10
2018-03-22T17:42:50.936Z,77.70
2018-03-22T17:45:19.215Z,77.50
2018-03-22T17:47:47.522Z,77.80
2018-03-22T17:50:15.738Z,77.60
2018-03-22T17:52:44.027Z,77.30
2018-03-22T17:55:12.289Z,77.70
2018-03-22T17:57:40.633Z,77.10
2018-03-22T18:00:08.917Z,77.00
2018-03-22T18:02:37.155Z,77.30
2018-03-22T18:05:05.403Z,77.60
2018-03-22T18:07:33.735Z,77.80
2018-03-22T18:10:02.919Z,77.70
2018-03-22T18:12:31.234Z,77.70
2018-03-22T18:14:59.572Z,77.60
2018-03-22T18:17:27.834Z,77.40
2018-03-22T18:19:56.129Z,77.90
2018-03-22T18:22:24.437Z,77.50
2018-03-22T18:24:53.617Z,77.40
2018-03-22T18:27:21.866Z,77.40
2018-03-22T18:29:50.225Z,77.00
2018-03-22T18:32:18.559Z,77.20
2018-03-22T18:34:47.398Z,77.10
2018-03-22T18:37:15.665Z,77.40
2018-03-22T18:39:44.002Z,77.10
2018-03-22T18:42:13.104Z,77.40
2018-03-22T18:44:42.226Z,78.00
2018-03-22T18:47:10.597Z,77.50
2018-03-22T18:49:38.846Z,77.40
2018-03-22T18:52:07.918Z,78.10
2018-03-22T18:54:36.221Z,78.00
2018-03-22T18:57:05.277Z,77.90
2018-03-22T18:59:33.573Z,77.90
2018-03-22T19:02:02.727Z,77.80
2018-03-22T19:04:31.085Z,77.80
2018-03-22T19:06:59.405Z,77.60
2018-03-22T19:09:27.686Z,77.50
2018-03-22T19:11:55.985Z,77.50
2018-03-22T19:14:24.252Z,77.60
2018-03-22T19:16:52.584Z,77.30
2018-03-22T19:19:20.910Z,77.50
2018-03-22T19:21:49.223Z,77.50
2018-03-22T19:24:17.547Z,77.70
2018-03-22T19:26:45.856Z,77.80
2018-03-22T19:29:14.168Z,78.20
2018-03-22T19:31:42.529Z,78.30
2018-03-22T19:34:10.835Z,78.60
2018-03-22T19:36:39.176Z,78.00
2018-03-22T19:39:08.213Z,78.30
2018-03-22T19:41:36.516Z,78.20
2018-03-22T19:44:04.790Z,77.80
2018-03-22T19:46:33.047Z,78.10
2018-03-22T19:49:02.245Z,78.00
2018-03-22T19:51:30.689Z,78.20
2018-03-22T19:53:59.003Z,78.00
2018-03-22T19:56:27.280Z,77.90
2018-03-22T19:58:55.577Z,77.80
2018-03-22T20:01:24.737Z,77.50
2018-03-22T20:03:53.036Z,76.80
2018-03-22T20:06:21.303Z,77.30
2018-03-22T20:08:49.615Z,77.30
2018-03-22T20:11:17.887Z,77.10
2018-03-22T20:13:46.218Z,77.00
2018-03-22T20:16:14.500Z,77.50
2018-03-22T20:18:42.835Z,77.90
2018-03-22T20:21:11.879Z,78.00
2018-03-22T20:23:40.159Z,78.00
2018-03-22T20:26:08.455Z,77.90
2018-03-22T20:28:36.742Z,77.40
2018-03-22T20:31:05.024Z,78.10
2018-03-22T20:33:33.338Z,77.30
2018-03-22T20:36:01.731Z,77.50
2018-03-22T20:38:30.864Z,77.10
2018-03-22T20:40:59.191Z,77.30
2018-03-22T20:43:27.462Z,78.00
2018-03-22T20:45:55.732Z,77.60
2018-03-22T20:48:24.077Z,76.90
2018-03-22T20:50:52.337Z,77.40
2018-03-22T20:53:20.613Z,77.10
2018-03-22T20:55:48.912Z,77.10
2018-03-22T20:58:17.172Z,77.20
2018-03-22T21:00:46.212Z,76.80
2018-03-22T21:03:14.540Z,76.50
2018-03-22T21:05:42.873Z,76.50
2018-03-22T21:08:11.150Z,75.30
2018-03-22T21:10:39.470Z,75.90
2018-03-22T21:13:08.561Z,75.10
2018-03-22T21:15:36.826Z,75.20
2018-03-22T21:18:05.237Z,75.40
2018-03-22T21:20:34.293Z,76.20
2018-03-22T21:23:02.533Z,76.10
2018-03-22T21:25:30.817Z,75.90
2018-03-22T21:27:59.099Z,75.80
2018-03-22T21:30:27.388Z,75.20
2018-03-22T21:32:55.682Z,74.90
2018-03-22T21:35:24.003Z,74.10
2018-03-22T21:37:53.034Z,74.70
2018-03-22T21:40:21.296Z,74.70
2018-03-22T21:42:49.639Z,74.60
2018-03-22T21:45:17.949Z,74.80
2018-03-22T21:47:46.202Z,75.40
2018-03-22T21:50:15.254Z,75.30
2018-03-22T21:52:45.972Z,75.30
2018-03-22T21:55:14.272Z,75.40
2018-03-22T21:57:42.527Z,75.50
2018-03-22T22:00:11.578Z,75.20
2018-03-22T22:02:40.626Z,75.30
2018-03-22T22:05:08.964Z,75.20
2018-03-22T22:07:37.226Z,74.50
2018-03-22T22:10:05.542Z,74.50
2018-03-22T22:12:33.943Z,74.90
2018-03-22T22:15:02.061Z,74.90
2018-03-22T22:17:30.319Z,74.70
2018-03-22T22:19:59.360Z,73.80
2018-03-22T22:22:27.630Z,73.70
2018-03-22T22:24:55.925Z,73.90
2018-03-22T22:27:24.188Z,73.50
2018-03-22T22:29:52.434Z,73.60
2018-03-22T22:32:20.736Z,73.50
2018-03-22T22:34:49.006Z,72.90
2018-03-22T22:37:17.293Z,72.70
2018-03-22T22:39:45.560Z,73.20
2018-03-22T22:42:13.861Z,73.30
2018-03-22T22:44:42.191Z,73.50
2018-03-22T22:47:10.405Z,74.30
2018-03-22T22:49:38.653Z,74.20
2018-03-22T22:52:06.911Z,74.50
2018-03-22T22:54:35.238Z,75.30
2018-03-22T22:57:03.473Z,75.20
2018-03-22T22:59:31.704Z,75.80
2018-03-22T23:01:59.993Z,76.00
2018-03-22T23:04:29.007Z,75.90
2018-03-22T23:06:57.254Z,75.90
2018-03-22T23:09:26.290Z,76.10
2018-03-22T23:11:54.545Z,76.10
2018-03-22T23:14:24.592Z,75.00
2018-03-22T23:16:54.390Z,75.20
2018-03-22T23:19:24.350Z,75.00
2018-03-22T23:21:52.650Z,75.00
2018-03-22T23:24:22.398Z,74.70
2018-03-22T23:26:50.657Z,74.50
2018-03-22T23:29:18.895Z,74.70
2018-03-22T23:31:48.707Z,74.50
2018-03-22T23:34:19.367Z,74.30
2018-03-22T23:36:48.373Z,74.30
2018-03-22T23:39:16.626Z,74.20
2018-03-22T23:41:46.571Z,74.00
2018-03-22T23:46:50.661Z,73.90
2018-03-22T23:49:18.930Z,74.90
2018-03-22T23:51:49.411Z,75.80
2018-03-22T23:54:17.695Z,75.00
2018-03-22T23:56:45.915Z,74.90
2018-03-22T23:59:14.968Z,76.10
